River John, Canada
Current Conditions -  °F | °C
As of 3:00 PM on Friday 28 Nov 2014 (Local Time) from CYYG Reporting Station
Snow Showers Snow Showers  
Wind Chill: 21°   Ceiling: 3100
Heat Index: 28°   Visibility: 15mi
Dew Point: 19°   Wind: 7mph
Humidity: 69%   Direction: 330°NNW
Pressure: 29.93"   Gusts: NA
Location:  45.73°N, 63.05°W
Report Text: CYYG 281900Z 33006KT 300V360 15SM -SHSN OVC031 M02/M07 A2993 RMK SC8 SLP136
Loading
Personal Weather Stations






























Interactive Weather Map New forecast layout! Learn more

10-Day Weather Forecast

Advertisements
Track Severe Weather on mobile